createdAt,value
2018-05-09T00:04:50.322Z,2.80
2018-05-09T00:09:53.959Z,3.10
2018-05-09T00:14:57.605Z,2.83
2018-05-09T00:20:00.844Z,2.80
2018-05-09T00:25:04.212Z,2.95
2018-05-09T00:30:08.230Z,2.75
2018-05-09T00:35:12.042Z,2.87
2018-05-09T00:40:15.342Z,3.30
2018-05-09T00:45:18.752Z,3.42
2018-05-09T00:50:22.080Z,2.97
2018-05-09T00:55:25.897Z,2.95
2018-05-09T01:00:29.765Z,2.90
2018-05-09T01:05:33.531Z,2.92
2018-05-09T01:10:37.180Z,3.30
2018-05-09T01:15:40.465Z,3.08
2018-05-09T01:20:43.747Z,3.15
2018-05-09T01:25:47.155Z,3.25
2018-05-09T01:30:50.670Z,3.00
2018-05-09T01:35:53.898Z,2.72
2018-05-09T01:40:57.153Z,3.20
2018-05-09T01:46:00.589Z,3.50
2018-05-09T01:51:04.409Z,2.80
2018-05-09T01:56:08.151Z,3.10
2018-05-09T02:01:11.416Z,2.85
2018-05-09T02:06:14.639Z,3.05
2018-05-09T02:11:17.863Z,3.40
2018-05-09T02:16:21.485Z,3.33
2018-05-09T02:21:24.746Z,3.12
2018-05-09T02:26:28.434Z,3.20
2018-05-09T02:31:31.708Z,3.60
2018-05-09T02:36:36.924Z,3.15
2018-05-09T02:41:40.155Z,3.42
2018-05-09T02:46:43.877Z,3.60
2018-05-09T02:51:47.149Z,3.35
2018-05-09T02:56:50.384Z,3.70
2018-05-09T03:01:54.035Z,3.62
2018-05-09T03:06:57.251Z,3.22
2018-05-09T03:12:00.481Z,3.17
2018-05-09T03:17:03.733Z,3.20
2018-05-09T03:22:06.974Z,3.62
2018-05-09T03:27:10.235Z,4.47
2018-05-09T03:32:13.838Z,3.58
2018-05-09T03:37:17.079Z,3.45
2018-05-09T03:42:20.319Z,3.70
2018-05-09T03:47:23.536Z,3.58
2018-05-09T03:52:26.783Z,3.70
2018-05-09T03:57:30.019Z,3.62
2018-05-09T04:02:46.094Z,3.72
2018-05-09T04:08:01.333Z,4.10
2018-05-09T04:13:04.664Z,3.92
2018-05-09T04:18:07.856Z,4.07
2018-05-09T04:23:12.272Z,3.72
2018-05-09T04:28:15.779Z,4.07
2018-05-09T04:33:18.881Z,4.35
2018-05-09T04:38:22.107Z,4.10
2018-05-09T04:43:25.354Z,4.03
2018-05-09T04:48:28.989Z,4.00
2018-05-09T04:53:32.260Z,4.87
2018-05-09T04:58:35.969Z,4.72
2018-05-09T05:03:39.189Z,4.10
2018-05-09T05:08:42.800Z,4.80
2018-05-09T05:13:46.415Z,5.20
2018-05-09T05:18:50.064Z,5.85
2018-05-09T05:23:53.288Z,4.35
2018-05-09T05:28:56.538Z,4.75
2018-05-09T05:34:00.249Z,4.55
2018-05-09T05:39:03.527Z,4.65
2018-05-09T05:44:06.935Z,4.37
2018-05-09T05:49:10.172Z,3.85
2018-05-09T05:54:13.403Z,4.50
2018-05-09T05:59:16.624Z,4.35
2018-05-09T06:04:19.992Z,4.37
2018-05-09T06:09:23.637Z,4.28
2018-05-09T06:14:27.010Z,4.30
2018-05-09T06:19:30.335Z,5.43
2018-05-09T06:24:34.042Z,4.53
2018-05-09T06:29:37.292Z,5.05
2018-05-09T06:34:40.655Z,4.62
2018-05-09T06:39:43.963Z,4.40
2018-05-09T06:44:47.198Z,5.32
2018-05-09T06:49:50.490Z,5.47
2018-05-09T06:54:54.104Z,4.72
2018-05-09T06:59:57.741Z,5.05
2018-05-09T07:05:01.123Z,5.30
2018-05-09T07:10:04.745Z,5.05
2018-05-09T07:15:08.367Z,5.25
2018-05-09T07:20:11.983Z,5.12
2018-05-09T07:25:15.199Z,5.47
2018-05-09T07:30:18.429Z,5.30
2018-05-09T07:35:21.785Z,5.80
2018-05-09T07:40:25.444Z,6.03
2018-05-09T07:45:28.800Z,5.40
2018-05-09T07:50:32.016Z,5.00
2018-05-09T07:55:35.683Z,5.15
2018-05-09T08:00:39.029Z,6.05
2018-05-09T08:05:42.256Z,6.07
2018-05-09T08:10:45.875Z,6.32
2018-05-09T08:15:49.102Z,5.62
2018-05-09T08:20:52.363Z,5.45
2018-05-09T08:25:55.973Z,6.15
2018-05-09T08:30:59.220Z,6.25
2018-05-09T08:36:02.476Z,6.20
2018-05-09T08:41:05.814Z,6.32
2018-05-09T08:46:09.042Z,6.57
2018-05-09T08:51:12.256Z,6.72
2018-05-09T08:56:15.496Z,6.37
2018-05-09T09:01:18.795Z,6.35
2018-05-09T09:06:22.098Z,6.15
2018-05-09T09:11:25.673Z,7.25
2018-05-09T09:16:28.962Z,6.57
2018-05-09T09:21:32.966Z,5.87
2018-05-09T09:26:36.481Z,6.97
2018-05-09T09:31:40.104Z,6.22
2018-05-09T09:36:43.733Z,6.43
2018-05-09T09:41:46.979Z,6.78
2018-05-09T09:46:50.204Z,7.07
2018-05-09T09:51:53.452Z,7.22
2018-05-09T09:56:56.670Z,7.18
2018-05-09T10:02:00.034Z,7.15
2018-05-09T10:07:03.264Z,7.30
2018-05-09T10:12:06.500Z,7.05
2018-05-09T10:17:09.740Z,7.00
2018-05-09T10:22:13.195Z,7.20
2018-05-09T10:27:16.478Z,7.05
2018-05-09T10:32:20.215Z,7.18
2018-05-09T10:37:23.431Z,7.50
2018-05-09T10:42:26.638Z,6.82
2018-05-09T10:47:29.921Z,6.50
2018-05-09T10:52:33.117Z,6.60
2018-05-09T10:57:36.743Z,6.22
2018-05-09T11:02:40.359Z,5.60
2018-05-09T11:07:44.176Z,4.75
2018-05-09T11:12:48.226Z,3.97
2018-05-09T11:17:51.468Z,5.15
2018-05-09T11:22:54.705Z,4.40
2018-05-09T11:27:58.411Z,2.97
2018-05-09T11:33:01.654Z,2.90
2018-05-09T11:38:04.882Z,2.95
2018-05-09T11:43:08.247Z,3.45
2018-05-09T11:48:11.477Z,2.95
2018-05-09T11:53:14.832Z,2.83
2018-05-09T11:58:18.151Z,3.62
2018-05-09T12:03:21.781Z,2.92
2018-05-09T12:08:25.053Z,2.75
2018-05-09T12:13:28.276Z,2.90
2018-05-09T12:18:31.530Z,3.40
2018-05-09T12:23:34.742Z,2.75
2018-05-09T12:28:37.969Z,3.40
2018-05-09T12:33:41.187Z,3.10
2018-05-09T12:38:44.508Z,4.25
2018-05-09T12:43:47.765Z,4.15
2018-05-09T12:48:51.106Z,4.00
2018-05-09T12:53:54.268Z,3.92
2018-05-09T12:58:57.494Z,3.70
2018-05-09T13:04:00.744Z,3.90
2018-05-09T13:09:04.460Z,3.65
2018-05-09T13:14:08.180Z,3.30
2018-05-09T13:19:11.804Z,3.72
2018-05-09T13:24:15.061Z,3.67
2018-05-09T13:29:18.296Z,3.40
2018-05-09T13:34:21.535Z,3.78
2018-05-09T13:39:24.775Z,3.47
2018-05-09T13:44:28.015Z,3.28
2018-05-09T13:49:31.628Z,3.25
2018-05-09T13:54:35.293Z,3.40
2018-05-09T13:59:38.507Z,3.28
2018-05-09T14:04:41.762Z,3.10
2018-05-09T14:09:45.159Z,3.08
2018-05-09T14:14:48.785Z,2.75
2018-05-09T14:19:52.124Z,2.65
2018-05-09T14:24:55.367Z,2.90
2018-05-09T14:29:58.604Z,3.12
2018-05-09T14:35:02.453Z,2.70
2018-05-09T14:40:05.713Z,2.45
2018-05-09T14:45:10.328Z,2.80
2018-05-09T14:50:13.937Z,2.70
2018-05-09T14:55:17.167Z,2.80
2018-05-09T15:00:20.468Z,2.70
2018-05-09T15:05:23.730Z,3.08
2018-05-09T15:10:27.075Z,2.80
2018-05-09T15:15:30.330Z,2.80
2018-05-09T15:20:34.072Z,2.65
2018-05-09T15:25:37.883Z,3.05
2018-05-09T15:30:41.529Z,2.45
2018-05-09T15:35:44.889Z,2.33
2018-05-09T15:40:48.574Z,3.30
2018-05-09T15:45:52.621Z,2.70
2018-05-09T15:50:56.249Z,2.80
2018-05-09T15:55:59.490Z,2.78
2018-05-09T16:01:02.847Z,2.60
2018-05-09T16:06:06.487Z,2.40
2018-05-09T16:11:10.515Z,2.50
2018-05-09T16:16:13.840Z,2.50
2018-05-09T16:21:17.181Z,2.40
2018-05-09T16:26:20.813Z,2.50
2018-05-09T16:31:24.185Z,2.35
2018-05-09T16:36:27.852Z,2.22
2018-05-09T16:41:31.210Z,2.45
2018-05-09T16:46:35.228Z,2.00
2018-05-09T16:51:38.538Z,2.05
2018-05-09T16:56:41.784Z,3.00
2018-05-09T17:01:45.022Z,2.60
2018-05-09T17:06:48.652Z,2.45
2018-05-09T17:11:52.157Z,2.90
2018-05-09T17:16:55.445Z,3.10
2018-05-09T17:22:16.725Z,3.15
2018-05-09T17:27:19.977Z,4.10
2018-05-09T17:32:23.616Z,3.78
2018-05-09T17:37:27.022Z,2.90
2018-05-09T17:42:30.291Z,2.85
2018-05-09T17:47:33.521Z,3.00
2018-05-09T17:52:36.799Z,2.70
2018-05-09T17:57:40.466Z,2.90
2018-05-09T18:02:43.691Z,2.72
2018-05-09T18:07:46.978Z,2.70
2018-05-09T18:12:50.289Z,2.60
2018-05-09T18:17:53.513Z,3.00
2018-05-09T18:22:57.137Z,3.15
2018-05-09T18:28:00.392Z,3.08
2018-05-09T18:33:03.627Z,3.00
2018-05-09T18:38:29.938Z,2.72
2018-05-09T18:49:13.019Z,4.00
2018-05-09T18:54:22.116Z,2.97
2018-05-09T18:59:26.176Z,3.15
2018-05-09T19:04:31.897Z,3.40
2018-05-09T19:09:38.842Z,3.40
2018-05-09T19:14:45.645Z,3.35
2018-05-09T19:19:49.665Z,3.33
2018-05-09T19:24:53.034Z,2.90
2018-05-09T19:29:56.750Z,2.95
2018-05-09T19:35:00.388Z,3.97
2018-05-09T19:40:04.376Z,3.67
2018-05-09T19:45:07.618Z,3.80
2018-05-09T19:50:10.877Z,3.12
2018-05-09T19:55:14.521Z,3.35
2018-05-09T20:00:17.757Z,3.95
2018-05-09T20:05:21.071Z,3.78
2018-05-09T20:10:24.607Z,3.78
2018-05-09T20:15:29.316Z,3.25
2018-05-09T20:20:32.589Z,3.42
2018-05-09T20:25:35.873Z,3.10
2018-05-09T20:30:45.100Z,3.17
2018-05-09T20:35:48.732Z,3.33
2018-05-09T20:40:52.456Z,3.00
2018-05-09T20:45:55.675Z,2.92
2018-05-09T20:50:58.917Z,2.85
2018-05-09T20:56:02.168Z,3.00
2018-05-09T21:01:17.431Z,3.08
2018-05-09T21:06:21.095Z,2.87
2018-05-09T21:11:24.728Z,2.75
2018-05-09T21:16:28.067Z,3.50
2018-05-09T21:21:31.514Z,3.03
2018-05-09T21:26:36.349Z,3.60
2018-05-09T21:31:39.630Z,2.85
2018-05-09T21:36:43.447Z,3.55
2018-05-09T21:41:46.705Z,2.97
2018-05-09T21:46:50.088Z,3.92
2018-05-09T21:51:53.598Z,3.25
2018-05-09T21:56:57.045Z,3.15
2018-05-09T22:02:00.281Z,3.10
2018-05-09T22:07:03.596Z,3.22
2018-05-09T22:12:07.132Z,3.15
2018-05-09T22:17:10.487Z,3.00
2018-05-09T22:22:13.724Z,3.50
2018-05-09T22:27:18.031Z,3.30
2018-05-09T22:32:21.356Z,3.50
2018-05-09T22:37:25.114Z,2.90
2018-05-09T22:42:28.396Z,3.08
2018-05-09T22:47:31.643Z,3.20
2018-05-09T22:52:36.024Z,3.40
2018-05-09T22:57:39.434Z,3.10
2018-05-09T23:02:43.868Z,3.83
2018-05-09T23:07:47.608Z,4.05
2018-05-09T23:12:51.250Z,3.22
2018-05-09T23:17:54.516Z,3.50
2018-05-09T23:22:58.227Z,3.50
2018-05-09T23:28:01.503Z,2.85
2018-05-09T23:33:04.737Z,3.58
2018-05-09T23:38:08.479Z,3.47
2018-05-09T23:43:12.202Z,3.60
2018-05-09T23:48:18.287Z,3.50
2018-05-09T23:53:21.677Z,3.37
2018-05-09T23:58:25.060Z,3.37
